Time;durP1;ratioP1;P1;durP2;ratioP2;P2;SDS_P1;SDS_P2;PMS_P1;PMS_P2;Temp;Humidity;BMP_temperature;BMP_pressure;BME280_temperature;BME280_humidity;BME280_pressure;Samples;Min_cycle;Max_cycle;Signal;HPM_P1;HPM_P2
2022/07/16 00:03:01;;;;;;;3.27;2.27;;;14.70;99.90;;;-141.84;58.94;20088.22;5030914;28;20275;-57
2022/07/16 00:05:30;;;;;;;4.47;1.90;;;14.70;99.90;;;-141.84;58.71;20082.13;5030175;28;20206;-56
2022/07/16 00:07:58;;;;;;;3.57;2.57;;;14.70;99.90;;;-141.84;58.62;20082.13;5031150;28;20205;-58
2022/07/16 00:10:28;;;;;;;3.53;2.77;;;14.70;99.90;;;-141.84;56.84;20120.75;5030739;28;20222;-59
2022/07/16 00:12:56;;;;;;;8.15;5.78;;;14.80;99.90;;;-141.84;57.60;20120.75;5030506;28;20314;-58
2022/07/16 00:15:24;;;;;;;9.17;7.87;;;14.80;99.90;;;-141.84;57.66;20082.13;5030451;28;20550;-58
2022/07/16 00:19:15;;;;;;;7.93;5.28;;;14.70;99.90;;;-141.84;57.55;20114.63;5030365;28;20257;-56
2022/07/16 00:20:40;;;;;;;4.43;3.90;;;14.80;99.90;;;-141.84;56.87;20139.03;5029938;28;20210;-56
2022/07/16 00:23:09;;;;;;;5.97;3.33;;;14.80;99.90;;;-141.84;57.26;20132.94;5030859;28;20248;-63
2022/07/16 00:25:38;;;;;;;5.70;2.90;;;14.90;99.90;;;-141.84;57.29;20149.19;5030167;28;20312;-58
2022/07/16 00:28:06;;;;;;;2.40;1.70;;;14.90;99.90;;;-141.84;57.87;20102.44;5030025;28;20263;-59
2022/07/16 00:30:35;;;;;;;4.00;1.75;;;14.90;99.90;;;-141.84;58.11;20159.34;5030287;28;20234;-58
2022/07/16 00:33:03;;;;;;;3.33;1.80;;;14.90;99.90;;;-141.84;58.23;20137.00;5030351;28;20524;-58
2022/07/16 00:35:31;;;;;;;5.40;2.10;;;15.00;99.90;;;-141.84;58.07;20128.88;5030091;28;20281;-57
2022/07/16 00:37:59;;;;;;;2.45;1.27;;;15.00;99.90;;;-141.84;58.16;20114.63;5030501;28;20265;-59
2022/07/16 00:40:28;;;;;;;2.75;1.65;;;15.00;99.90;;;-141.84;57.95;20157.31;5029826;28;20305;-57
2022/07/16 00:42:58;;;;;;;2.22;1.40;;;15.10;99.90;;;-141.84;58.33;20161.38;5029565;28;20768;-58
2022/07/16 00:45:27;;;;;;;5.63;1.98;;;15.10;99.90;;;-141.84;58.03;20139.03;5030096;28;20435;-57
2022/07/16 00:47:55;;;;;;;2.33;1.60;;;15.10;99.90;;;-141.84;57.46;20157.31;5029720;28;20680;-58
2022/07/16 00:50:23;;;;;;;3.30;1.70;;;15.10;99.90;;;-141.84;58.02;20137.00;5029886;28;20202;-58
2022/07/16 00:52:53;;;;;;;3.03;2.00;;;15.10;99.90;;;-141.84;58.08;20134.97;5030904;28;20204;-58
2022/07/16 00:55:21;;;;;;;3.83;2.00;;;15.10;99.90;;;-141.84;57.71;20177.66;5029721;28;20441;-59
2022/07/16 00:57:49;;;;;;;3.78;2.42;;;15.20;99.90;;;-141.84;57.76;20163.41;5029141;28;20705;-58
2022/07/16 01:00:19;;;;;;;3.97;2.47;;;15.20;99.90;;;-141.84;57.05;20169.53;5029737;28;20230;-58
2022/07/16 01:02:47;;;;;;;4.07;2.40;;;15.20;99.90;;;-141.84;57.50;20157.31;5029052;28;20305;-59
2022/07/16 01:05:15;;;;;;;4.93;2.97;;;15.20;99.90;;;-141.84;57.52;20155.28;5030270;28;20202;-59
2022/07/16 01:07:45;;;;;;;3.95;2.70;;;15.20;99.90;;;-141.84;57.45;20175.63;5029516;28;20230;-58
2022/07/16 01:10:14;;;;;;;4.10;2.90;;;15.20;99.90;;;-141.84;57.31;20185.78;5029638;28;20317;-58
2022/07/16 01:12:43;;;;;;;3.93;2.90;;;15.20;99.90;;;-141.84;57.28;20157.31;5029306;28;20237;-57
2022/07/16 01:15:12;;;;;;;5.97;3.25;;;15.20;99.90;;;-141.84;57.26;20165.44;5029320;28;20222;-57
2022/07/16 01:17:42;;;;;;;5.45;3.20;;;15.20;99.90;;;-141.84;56.71;20183.75;5029388;28;20249;-58
2022/07/16 01:20:11;;;;;;;5.85;2.83;;;15.20;99.90;;;-141.84;56.96;20147.16;5029583;28;20628;-57
2022/07/16 01:22:39;;;;;;;6.53;2.28;;;15.20;99.90;;;-141.84;56.63;20173.59;5029104;28;20308;-57
2022/07/16 01:25:11;;;;;;;4.80;2.25;;;15.20;99.90;;;-141.84;56.56;20173.59;5029524;28;20226;-57
2022/07/16 01:27:39;;;;;;;3.47;2.08;;;15.20;99.90;;;-141.84;56.74;20161.38;5029163;28;20230;-58
2022/07/16 01:30:10;;;;;;;4.53;2.38;;;15.10;99.90;;;-141.84;57.27;20157.31;5029318;28;20228;-56
2022/07/16 01:32:39;;;;;;;4.07;2.13;;;15.10;99.90;;;-141.84;56.62;20153.25;5029352;28;20225;-59
2022/07/16 01:35:09;;;;;;;4.22;2.10;;;15.10;99.90;;;-141.84;56.42;20173.59;5029259;28;20670;-58
2022/07/16 01:37:38;;;;;;;4.25;2.22;;;15.10;99.90;;;-141.84;56.98;20130.91;5028908;28;20368;-58
2022/07/16 01:40:07;;;;;;;3.65;1.83;;;15.10;99.90;;;-141.84;56.59;20197.97;5028887;28;20313;-59
2022/07/16 01:42:37;;;;;;;2.88;1.70;;;15.00;99.90;;;-141.84;56.65;20143.09;5029164;28;20228;-58
2022/07/16 01:45:06;;;;;;;2.60;1.47;;;15.00;99.90;;;-141.84;56.94;20143.09;5029238;28;20304;-59
2022/07/16 01:47:34;;;;;;;2.57;1.70;;;15.00;99.90;;;-141.84;56.34;20173.59;5029059;28;20616;-58
2022/07/16 01:50:03;;;;;;;2.88;1.70;;;15.00;99.90;;;-141.84;56.28;20145.13;5028955;28;20198;-57
2022/07/16 01:52:32;;;;;;;3.30;1.60;;;15.00;99.90;;;-141.84;56.67;20130.91;5029044;28;20328;-57
2022/07/16 01:55:00;;;;;;;5.00;1.75;;;15.00;99.90;;;-141.84;57.21;20108.53;5028857;28;20256;-58
2022/07/16 01:57:28;;;;;;;3.58;1.50;;;15.00;99.90;;;-141.84;56.58;20134.97;5028512;28;20666;-59
2022/07/16 01:59:57;;;;;;;3.08;1.95;;;15.00;99.90;;;-141.84;57.05;20098.38;5028567;28;20222;-59
2022/07/16 02:02:25;;;;;;;3.00;1.60;;;14.90;99.90;;;-141.84;57.25;20143.09;5028807;28;20210;-57
2022/07/16 02:04:53;;;;;;;4.47;1.63;;;14.90;99.90;;;-141.84;57.29;20134.97;5029269;28;20325;-58
2022/07/16 02:07:22;;;;;;;2.50;1.47;;;14.90;99.90;;;-141.84;56.73;20155.28;5028599;28;20226;-59
2022/07/16 02:09:50;;;;;;;2.10;1.63;;;14.80;99.90;;;-141.84;57.67;20112.59;5028450;28;20234;-60
2022/07/16 02:12:18;;;;;;;3.33;1.63;;;14.80;99.90;;;-141.84;57.36;20071.97;5028639;28;20793;-58
2022/07/16 02:14:46;;;;;;;3.07;1.43;;;14.70;99.90;;;-141.84;57.44;20096.34;5029596;28;20232;-56
2022/07/16 02:17:16;;;;;;;4.53;1.47;;;14.70;99.90;;;-141.84;57.13;20094.31;5033063;28;20643;-60
2022/07/16 02:19:44;;;;;;;3.00;1.25;;;14.70;99.90;;;-141.84;57.17;20104.47;5032341;28;20241;-59
2022/07/16 02:22:12;;;;;;;2.17;1.40;;;14.70;99.90;;;-141.84;57.60;20061.78;5032476;28;20233;-57
2022/07/16 02:24:40;;;;;;;4.60;1.40;;;14.60;99.90;;;-141.84;57.08;20114.63;5032681;28;20233;-59
2022/07/16 02:27:08;;;;;;;3.20;1.50;;;14.60;99.90;;;-141.84;57.04;20112.59;5032577;28;20272;-57
2022/07/16 02:29:36;;;;;;;3.20;1.37;;;14.70;99.90;;;-141.84;57.46;20139.03;5032431;28;20224;-56
2022/07/16 02:32:05;;;;;;;3.23;1.40;;;14.70;99.90;;;-141.84;56.63;20120.75;5033117;28;20610;-58
2022/07/16 02:34:35;;;;;;;2.75;1.30;;;14.70;99.90;;;-141.84;56.42;20124.81;5032298;28;20253;-58
2022/07/16 02:37:03;;;;;;;2.63;1.20;;;14.70;99.90;;;-141.84;56.69;20130.91;5032184;28;20257;-58
2022/07/16 02:39:32;;;;;;;3.87;1.40;;;14.70;99.90;;;-141.84;56.39;20165.44;5032003;28;20662;-58
2022/07/16 02:42:00;;;;;;;3.00;1.20;;;14.80;99.90;;;-141.84;56.34;20118.69;5032100;28;20595;-58
2022/07/16 02:44:28;;;;;;;4.03;1.30;;;14.90;99.90;;;-141.84;56.35;20137.00;5032132;28;20206;-59
2022/07/16 02:46:56;;;;;;;3.47;1.40;;;14.90;99.90;;;-141.84;56.35;20145.13;5032786;28;20771;-57
2022/07/16 02:49:25;;;;;;;5.00;1.50;;;14.90;99.90;;;-141.84;56.09;20153.25;5031919;28;20224;-59
2022/07/16 02:51:54;;;;;;;4.78;1.40;;;14.90;99.90;;;-141.84;56.37;20143.09;5031740;28;20230;-58
2022/07/16 02:54:22;;;;;;;4.63;1.40;;;14.90;99.90;;;-141.84;56.10;20161.38;5031726;28;20309;-57
2022/07/16 02:56:50;;;;;;;3.50;1.23;;;14.90;99.90;;;-141.84;56.57;20151.22;5031775;28;20600;-58
2022/07/16 02:59:19;;;;;;;3.40;1.20;;;14.90;99.90;;;-141.84;56.78;20088.22;5032165;28;20284;-58
2022/07/16 03:01:47;;;;;;;8.50;1.88;;;14.90;99.90;;;-141.84;55.97;20143.09;5032046;28;20301;-57
2022/07/16 03:04:15;;;;;;;3.23;1.27;;;14.90;99.90;;;-141.84;55.89;20165.44;5031622;28;20739;-58
2022/07/16 03:06:43;;;;;;;5.68;2.05;;;15.00;99.90;;;-141.84;55.78;20147.16;5031544;28;20225;-56
2022/07/16 03:09:13;;;;;;;2.07;1.20;;;15.00;99.90;;;-141.84;56.12;20141.06;5031802;28;20222;-56
2022/07/16 03:11:41;;;;;;;6.03;1.48;;;15.00;99.90;;;-141.84;55.94;20171.56;5031499;28;20654;-58
2022/07/16 03:14:10;;;;;;;4.13;1.52;;;15.00;99.90;;;-141.84;55.31;20179.69;5032097;28;20213;-59
2022/07/16 03:16:38;;;;;;;7.93;1.58;;;15.00;99.90;;;-141.84;55.57;20145.13;5031424;28;20313;-57
2022/07/16 03:19:06;;;;;;;4.45;1.30;;;15.00;99.90;;;-141.84;55.78;20153.25;5031388;28;20230;-58
2022/07/16 03:21:34;;;;;;;5.63;1.60;;;15.00;99.90;;;-141.84;55.82;20179.69;5031098;28;20221;-59
2022/07/16 03:24:02;;;;;;;6.07;1.27;;;15.00;99.90;;;-141.84;55.66;20139.03;5031376;28;20598;-55
2022/07/16 03:26:32;;;;;;;4.22;1.45;;;15.00;99.90;;;-141.84;55.94;20167.47;5031357;28;20233;-56
2022/07/16 03:29:00;;;;;;;4.82;1.63;;;15.00;99.90;;;-141.84;55.99;20145.13;5031636;28;20230;-58
2022/07/16 03:31:28;;;;;;;6.32;1.38;;;15.00;99.90;;;-141.84;54.72;20187.81;5031417;28;20253;-57
2022/07/16 03:33:56;;;;;;;5.97;1.53;;;15.10;99.90;;;-141.84;54.95;20183.75;5031353;28;20287;-58
2022/07/16 03:36:26;;;;;;;7.60;1.50;;;15.10;99.90;;;-141.84;54.64;20204.06;5030956;28;20232;-58
2022/07/16 03:39:02;;;;;;;3.78;1.33;;;15.20;99.90;;;-141.84;55.03;20175.63;5031424;28;20248;-57
2022/07/16 03:41:33;;;;;;;7.47;1.47;;;15.20;99.90;;;-141.84;55.45;20179.69;5030809;28;20225;-58
2022/07/16 03:44:02;;;;;;;5.90;1.60;;;15.20;99.90;;;-141.84;54.63;20175.63;5031499;28;20193;-56
2022/07/16 03:46:30;;;;;;;4.40;1.42;;;15.20;99.90;;;-141.84;54.91;20185.78;5031003;28;20225;-58
2022/07/16 03:48:59;;;;;;;3.50;1.37;;;15.20;99.90;;;-141.84;54.80;20189.84;5030880;28;20321;-56
2022/07/16 03:51:27;;;;;;;4.93;1.35;;;15.20;99.90;;;-141.84;54.76;20200.00;5030199;28;20313;-59
2022/07/16 03:53:56;;;;;;;4.93;1.40;;;15.20;99.90;;;-141.84;54.33;20224.41;5030958;28;20245;-58
2022/07/16 03:56:24;;;;;;;4.20;1.30;;;15.20;99.90;;;-141.84;53.75;20232.53;5030912;28;20300;-56
2022/07/16 03:58:54;;;;;;;3.73;1.23;;;15.30;99.90;;;-141.84;53.83;20232.53;5031470;28;20202;-58
2022/07/16 04:01:23;;;;;;;4.32;1.40;;;15.40;99.90;;;-141.84;53.86;20202.03;5030706;28;20240;-58
2022/07/16 04:03:52;;;;;;;3.97;1.30;;;15.30;99.90;;;-141.84;54.15;20200.00;5030709;28;20235;-57
2022/07/16 04:06:21;;;;;;;3.95;1.30;;;15.30;99.90;;;-141.84;54.07;20230.50;5030301;28;20222;-59
2022/07/16 04:08:50;;;;;;;5.00;1.43;;;15.30;99.90;;;-141.84;54.50;20220.34;5030709;28;20272;-57
2022/07/16 04:11:18;;;;;;;2.03;1.13;;;15.30;99.90;;;-141.84;53.65;20187.81;5031066;28;20298;-57
2022/07/16 04:13:46;;;;;;;3.13;1.50;;;15.30;99.90;;;-141.84;54.15;20208.13;5030128;28;20326;-58
2022/07/16 04:16:16;;;;;;;2.92;1.27;;;15.30;99.90;;;-141.84;54.22;20179.69;5030220;28;20230;-59
2022/07/16 04:18:44;;;;;;;3.03;1.50;;;15.30;99.90;;;-141.84;53.63;20226.44;5030200;28;20229;-58
2022/07/16 04:21:12;;;;;;;4.97;1.58;;;15.30;99.90;;;-141.84;54.19;20183.75;5030097;28;20253;-58
2022/07/16 04:23:41;;;;;;;5.63;1.42;;;15.40;99.90;;;-141.84;53.91;20173.59;5030310;28;20202;-57
2022/07/16 04:26:09;;;;;;;8.18;1.58;;;15.30;99.90;;;-141.84;53.57;20236.59;5030737;28;20365;-60
2022/07/16 04:28:37;;;;;;;4.20;1.47;;;15.30;99.90;;;-141.84;53.27;20236.59;5029994;28;20226;-56
2022/07/16 04:31:05;;;;;;;4.40;1.50;;;15.30;99.90;;;-141.84;52.82;20242.69;5030126;28;20229;-57
2022/07/16 04:33:35;;;;;;;5.72;1.48;;;15.40;99.90;;;-141.84;53.21;20236.59;5030120;28;20304;-56
2022/07/16 04:36:04;;;;;;;4.80;1.50;;;15.30;99.90;;;-141.84;52.93;20234.56;5029913;28;20228;-57
2022/07/16 04:38:32;;;;;;;3.45;1.30;;;15.40;99.90;;;-141.84;53.03;20263.00;5029744;28;20691;-57
2022/07/16 04:41:00;;;;;;;3.50;1.33;;;15.40;99.90;;;-141.84;53.00;20220.34;5030737;28;20317;-56
2022/07/16 04:43:28;;;;;;;5.13;1.33;;;15.40;99.90;;;-141.84;53.32;20242.69;5029777;28;20775;-56
2022/07/16 04:45:56;;;;;;;2.65;1.30;;;15.50;99.90;;;-141.84;53.24;20250.81;5029513;28;20244;-58
2022/07/16 04:48:25;;;;;;;5.03;1.40;;;15.50;99.90;;;-141.84;52.89;20222.38;5029765;28;20304;-56
2022/07/16 04:50:54;;;;;;;7.18;1.35;;;15.40;99.90;;;-141.84;53.96;20256.91;5029604;28;20226;-56
2022/07/16 04:53:22;;;;;;;3.90;1.33;;;15.40;99.90;;;-141.84;57.37;20169.53;5030090;28;20290;-59
2022/07/16 04:55:51;;;;;;;3.88;1.23;;;15.40;99.90;;;-141.84;59.17;20167.47;5030295;28;20198;-58
2022/07/16 04:58:19;;;;;;;1.65;1.20;;;15.40;99.90;;;-141.84;61.23;20110.56;5029631;28;20229;-57
2022/07/16 05:00:47;;;;;;;2.50;1.60;;;15.20;99.90;;;-141.84;63.45;20080.09;5029667;28;20236;-55
2022/07/16 05:03:15;;;;;;;4.25;1.50;;;15.00;99.90;;;-141.84;64.97;20053.66;5029656;28;20805;-57
2022/07/16 05:05:47;;;;;;;2.37;1.47;;;14.80;99.90;;;-141.84;67.84;19986.59;5029920;28;20226;-57
2022/07/16 05:08:17;;;;;;;4.40;1.38;;;14.70;99.90;;;-141.84;68.93;19994.72;5030053;28;20293;-59
2022/07/16 05:10:45;;;;;;;3.42;1.50;;;14.50;99.90;;;-141.84;69.79;19976.44;5029559;28;20218;-58
2022/07/16 05:13:13;;;;;;;2.90;1.80;;;14.50;99.90;;;-141.84;70.73;19931.72;5029390;28;20304;-57
2022/07/16 05:15:42;;;;;;;2.58;1.40;;;14.40;99.90;;;-141.84;70.32;19931.72;5029484;28;20292;-55
2022/07/16 05:18:11;;;;;;;2.37;1.37;;;14.40;99.90;;;-141.84;70.89;19972.38;5029182;28;20905;-58
2022/07/16 05:20:39;;;;;;;2.87;1.60;;;14.40;99.90;;;-141.84;70.00;19974.41;5028817;28;20221;-57
2022/07/16 05:23:07;;;;;;;3.67;1.80;;;14.40;99.90;;;-141.84;69.87;20021.16;5029810;28;20284;-58
2022/07/16 05:25:37;;;;;;;1.97;1.40;;;14.50;99.90;;;-141.84;70.51;19980.50;5029133;28;20707;-57
2022/07/16 05:28:05;;;;;;;2.17;1.40;;;14.60;99.90;;;-141.84;68.43;20063.81;5029240;28;20310;-58
2022/07/16 05:30:33;;;;;;;2.63;1.70;;;14.70;99.90;;;-141.84;67.92;20082.13;5029409;28;20702;-58
2022/07/16 05:33:02;;;;;;;3.97;2.00;;;14.80;99.90;;;-141.84;67.05;20059.75;5029248;28;20228;-60
2022/07/16 05:35:30;;;;;;;3.10;1.80;;;14.90;99.90;;;-141.84;61.95;20122.78;5029338;28;20213;-58
2022/07/16 05:37:58;;;;;;;3.07;1.70;;;15.00;99.90;;;-141.84;64.12;20114.63;5029856;28;20292;-56
2022/07/16 05:40:27;;;;;;;3.60;2.07;;;15.10;99.90;;;-141.84;63.89;20126.84;5029042;28;20232;-58
2022/07/16 05:42:56;;;;;;;3.45;1.80;;;15.20;99.90;;;-141.84;61.87;20204.06;5028543;28;20312;-59
2022/07/16 05:45:24;;;;;;;2.67;1.55;;;15.30;99.90;;;-141.84;61.82;20189.84;5028993;28;20218;-57
2022/07/16 05:47:52;;;;;;;2.55;1.70;;;15.40;99.90;;;-141.84;62.05;20187.81;5029156;28;20333;-58
2022/07/16 05:50:21;;;;;;;3.90;1.38;;;15.50;99.90;;;-141.84;58.11;20297.56;5028460;28;20245;-60
2022/07/16 05:52:49;;;;;;;1.77;1.50;;;15.50;99.90;;;-141.84;57.95;20248.78;5028934;28;20713;-57
2022/07/16 05:55:17;;;;;;;2.70;1.50;;;15.60;99.90;;;-141.84;57.50;20283.34;5029054;28;20230;-57
2022/07/16 05:57:45;;;;;;;2.65;1.40;;;15.80;99.90;;;-141.84;58.17;20309.75;5028720;28;20226;-58
2022/07/16 06:00:15;;;;;;;2.20;1.50;;;15.80;99.90;;;-141.84;59.12;20309.75;5028281;28;20576;-57
2022/07/16 06:02:44;;;;;;;1.73;1.35;;;16.00;99.90;;;-141.84;57.33;20358.56;5025701;28;20705;-55
2022/07/16 06:05:12;;;;;;;3.83;1.58;;;16.10;99.90;;;-141.84;55.38;20393.09;5010037;28;20606;-56
2022/07/16 06:07:40;;;;;;;2.67;1.58;;;16.30;99.90;;;-141.84;55.64;20403.25;5021600;28;20234;-58
2022/07/16 06:10:09;;;;;;;2.03;1.38;;;16.50;99.90;;;-141.84;54.48;20452.06;5028147;28;20264;-59
2022/07/16 06:12:39;;;;;;;1.58;1.38;;;16.60;99.90;;;-141.84;54.00;20474.41;5029728;28;20328;-56
2022/07/16 06:15:10;;;;;;;2.45;1.55;;;16.80;99.90;;;-141.84;54.83;20433.75;5030266;28;20574;-59
2022/07/16 06:17:40;;;;;;;2.63;1.40;;;16.80;99.90;;;-141.84;52.77;20508.97;5031286;28;20265;-58
2022/07/16 06:20:10;;;;;;;3.28;1.65;;;17.00;99.90;;;-141.84;51.66;20557.75;5031344;28;20205;-58
2022/07/16 06:22:39;;;;;;;3.63;1.88;;;17.10;99.90;;;-141.84;51.66;20521.16;5030930;28;20229;-56
2022/07/16 06:25:13;;;;;;;1.77;1.40;;;17.20;99.90;;;-141.84;51.20;20574.00;5031033;28;20237;-57
2022/07/16 06:27:43;;;;;;;2.35;1.40;;;17.30;99.90;;;-141.84;50.77;20574.00;5030275;28;20265;-56
2022/07/16 06:30:13;;;;;;;1.33;1.00;;;17.40;99.90;;;-141.84;49.79;20574.00;5028837;28;20230;-57
2022/07/16 06:32:44;;;;;;;4.75;1.70;;;17.50;99.90;;;-141.84;50.20;20582.16;5028886;28;20953;-58
2022/07/16 06:35:14;;;;;;;2.47;1.63;;;17.50;99.90;;;-141.84;50.54;20545.56;5029489;28;20197;-58
2022/07/16 06:37:42;;;;;;;5.35;1.67;;;17.40;99.90;;;-141.84;51.14;20553.69;5025239;28;20230;-58
2022/07/16 06:40:12;;;;;;;2.25;1.30;;;17.40;99.90;;;-141.84;51.31;20531.31;5028639;28;20638;-58
2022/07/16 06:42:40;;;;;;;1.63;1.33;;;17.40;99.90;;;-141.84;51.05;20571.97;5028756;28;20253;-60
2022/07/16 06:45:10;;;;;;;2.25;1.30;;;17.50;99.90;;;-141.84;49.35;20635.00;5028696;28;20276;-59
2022/07/16 06:47:38;;;;;;;3.75;1.40;;;17.70;99.90;;;-141.84;49.57;20630.94;5012780;28;20338;-59
2022/07/16 06:50:10;;;;;;;2.42;1.50;;;17.70;99.90;;;-141.84;50.13;20602.47;5029063;28;20205;-60
2022/07/16 06:52:40;;;;;;;2.28;1.30;;;17.70;99.90;;;-141.84;51.40;20578.09;5028979;28;20243;-59
2022/07/16 06:55:09;;;;;;;2.47;1.25;;;17.60;99.90;;;-141.84;49.86;20628.91;5029389;28;20297;-59
2022/07/16 06:57:37;;;;;;;3.90;1.35;;;17.70;99.90;;;-141.84;50.87;20618.72;5013489;28;20672;-58
2022/07/16 07:00:07;;;;;;;2.10;1.30;;;17.70;99.90;;;-141.84;48.91;20685.81;5027212;28;20656;-58
2022/07/16 07:02:35;;;;;;;3.35;1.25;;;17.90;99.90;;;-141.84;48.48;20710.22;5026338;28;20225;-58
2022/07/16 07:05:04;;;;;;;2.95;1.30;;;18.20;99.90;;;-141.84;46.64;20807.78;5033297;28;20285;-59
2022/07/16 07:07:33;;;;;;;2.78;1.50;;;18.50;99.90;;;-141.84;46.48;20846.41;5033161;28;20665;-57
2022/07/16 07:10:02;;;;;;;3.42;1.42;;;18.80;99.90;;;-141.84;46.47;20842.34;5030184;28;20229;-58
2022/07/16 07:12:30;;;;;;;1.70;1.10;;;19.00;99.90;;;-141.84;45.14;20887.06;5033024;28;20600;-58
2022/07/16 07:14:58;;;;;;;4.72;1.48;;;19.10;99.90;;;-141.84;45.51;20858.59;5032958;28;20218;-58
2022/07/16 07:17:27;;;;;;;2.40;1.10;;;19.10;99.90;;;-141.84;45.32;20925.69;5033069;28;20198;-59
2022/07/16 07:19:55;;;;;;;3.70;1.40;;;19.10;99.90;;;-141.84;44.83;20844.38;5030054;28;20922;-58
2022/07/16 07:22:23;;;;;;;1.58;1.23;;;19.10;99.90;;;-141.84;45.38;20820.00;5041406;28;20222;-58
2022/07/16 07:24:53;;;;;;;2.28;1.30;;;19.00;99.90;;;-141.84;46.98;20761.03;5031063;28;20257;-58
2022/07/16 07:27:22;;;;;;;2.95;1.38;;;18.90;99.90;;;-141.84;45.66;20779.31;5032414;28;20296;-58
2022/07/16 07:29:50;;;;;;;3.50;1.30;;;18.80;99.90;;;-141.84;46.31;20781.38;5033055;28;20305;-60
2022/07/16 07:32:18;;;;;;;1.58;1.35;;;18.80;99.90;;;-141.84;46.26;20789.50;5033454;28;20297;-58
2022/07/16 07:34:46;;;;;;;3.88;1.70;;;18.70;99.90;;;-141.84;45.91;20799.66;5032616;28;20229;-59
2022/07/16 07:37:15;;;;;;;3.25;1.20;;;18.90;99.90;;;-141.84;45.36;20874.88;5032660;28;20229;-58
2022/07/16 07:39:43;;;;;;;2.65;1.30;;;19.00;99.90;;;-141.84;43.90;20933.81;5032492;28;20434;-58
2022/07/16 07:42:13;;;;;;;2.38;1.50;;;19.40;99.90;;;-141.84;43.13;21017.19;5032816;28;20308;-59
2022/07/16 07:44:41;;;;;;;2.28;1.35;;;19.60;99.90;;;-141.84;42.21;21011.09;5032485;28;20273;-57
2022/07/16 07:47:09;;;;;;;1.70;1.15;;;19.90;99.90;;;-141.84;42.53;21015.16;5033193;28;20232;-60
2022/07/16 07:49:38;;;;;;;1.95;1.20;;;20.00;99.90;;;-141.84;43.33;21013.13;5031836;28;20268;-59
2022/07/16 07:52:12;;;;;;;4.75;1.33;;;20.10;99.90;;;-141.84;43.13;20998.88;5032349;28;20253;-59
2022/07/16 07:54:41;;;;;;;2.97;1.40;;;20.10;99.90;;;-141.84;43.21;21000.91;5034773;28;20252;-59
2022/07/16 07:57:09;;;;;;;3.83;1.42;;;20.00;99.90;;;-141.84;44.59;20950.09;5047346;28;20220;-61
2022/07/16 07:59:38;;;;;;;1.48;1.15;;;19.80;99.90;;;-141.84;45.59;20891.13;5032067;28;20206;-58
2022/07/16 08:02:06;;;;;;;4.13;1.33;;;19.60;99.90;;;-141.84;45.23;20852.50;5032419;28;20313;-62
2022/07/16 08:04:35;;;;;;;3.65;1.95;;;19.40;99.90;;;-141.84;44.33;20931.78;5031596;28;20234;-60
2022/07/16 08:07:03;;;;;;;2.78;1.30;;;19.40;99.90;;;-141.84;45.03;20870.81;5032332;28;20630;-60
2022/07/16 08:09:32;;;;;;;2.05;1.38;;;19.40;99.90;;;-141.84;45.22;20885.03;5031901;28;20218;-59
2022/07/16 08:12:00;;;;;;;2.67;1.40;;;19.40;99.90;;;-141.84;45.51;20919.59;5031802;28;20222;-59
2022/07/16 08:14:29;;;;;;;2.40;1.30;;;19.40;99.90;;;-141.84;44.61;20913.50;5031734;28;20224;-60
2022/07/16 08:16:59;;;;;;;2.13;1.40;;;19.50;99.90;;;-141.84;44.69;20907.41;5032521;28;20198;-61
2022/07/16 08:19:27;;;;;;;2.17;1.40;;;19.50;99.90;;;-141.84;45.37;20848.44;5032121;28;20224;-62
2022/07/16 08:21:56;;;;;;;2.38;1.20;;;19.50;99.90;;;-141.84;44.79;20903.34;5031585;28;20230;-62
2022/07/16 08:27:09;;;;;;;3.10;1.98;;;19.40;99.90;;;-141.84;46.33;20824.06;5031603;28;20249;-60
2022/07/16 08:29:38;;;;;;;2.45;1.40;;;19.30;99.90;;;-141.84;48.79;20761.03;5031733;28;20230;-61
2022/07/16 08:32:08;;;;;;;2.53;1.40;;;19.20;99.90;;;-141.84;48.27;20734.59;5031930;28;20289;-61
2022/07/16 08:34:36;;;;;;;2.58;1.48;;;19.00;99.90;;;-141.84;48.55;20716.31;5031373;28;20425;-64
2022/07/16 08:37:08;;;;;;;5.32;1.70;;;18.90;99.90;;;-141.84;51.44;20655.31;5031203;28;20671;-61
2022/07/16 08:39:42;;;;;;;3.05;1.80;;;18.70;99.90;;;-141.84;54.79;20578.09;5031386;28;20284;-61
2022/07/16 08:42:11;;;;;;;4.28;2.05;;;18.50;99.90;;;-141.84;56.60;20472.38;5031453;28;20546;-59
2022/07/16 08:44:41;;;;;;;2.63;1.90;;;18.20;99.90;;;-141.84;57.42;20462.22;5031259;28;20292;-62
2022/07/16 08:47:11;;;;;;;2.13;1.67;;;17.90;99.90;;;-141.84;56.08;20437.81;5031996;28;20213;-62
2022/07/16 08:49:40;;;;;;;3.75;1.67;;;17.70;99.90;;;-141.84;58.09;20447.97;5031019;28;20228;-61
2022/07/16 08:52:09;;;;;;;2.20;1.80;;;17.70;99.90;;;-141.84;55.48;20496.78;5049610;28;20229;-61
2022/07/16 08:54:40;;;;;;;2.22;1.70;;;17.90;99.90;;;-141.84;54.77;20571.97;5051046;28;20316;-61
2022/07/16 08:57:09;;;;;;;3.00;1.90;;;18.10;99.90;;;-141.84;55.31;20606.53;5051142;28;20221;-63
2022/07/16 08:59:38;;;;;;;3.47;1.83;;;18.40;99.90;;;-141.84;53.01;20716.31;5050946;28;20288;-62
2022/07/16 09:02:06;;;;;;;3.35;2.22;;;18.60;99.90;;;-141.84;54.62;20635.00;5051041;28;20701;-61
2022/07/16 09:04:37;;;;;;;2.97;2.22;;;18.70;99.90;;;-141.84;53.98;20769.16;5050904;28;20255;-63
2022/07/16 09:07:06;;;;;;;2.97;2.13;;;18.70;99.90;;;-141.84;54.74;20675.66;5050615;28;20237;-62
2022/07/16 09:09:34;;;;;;;3.28;2.20;;;18.70;99.90;;;-141.84;55.47;20630.94;5050767;28;20316;-64
2022/07/16 09:12:02;;;;;;;4.20;1.90;;;18.60;99.90;;;-141.84;56.91;20590.28;5050477;28;20219;-61
2022/07/16 09:14:30;;;;;;;2.92;2.00;;;18.50;99.90;;;-141.84;57.49;20598.41;5050671;28;20577;-61
2022/07/16 09:16:58;;;;;;;1.90;1.80;;;18.50;99.90;;;-141.84;56.78;20559.78;5051207;28;20260;-61
2022/07/16 09:19:30;;;;;;;2.92;2.20;;;18.30;99.90;;;-141.84;56.07;20590.28;5041955;28;20600;-61
2022/07/16 09:22:07;;;;;;;2.00;1.80;;;18.40;99.90;;;-141.84;55.66;20594.34;5030521;28;20297;-62
2022/07/16 09:24:40;;;;;;;4.70;2.33;;;18.30;99.90;;;-141.84;57.07;20549.63;5030476;28;20321;-61
2022/07/16 09:27:11;;;;;;;2.63;1.70;;;18.20;99.90;;;-141.84;56.55;20549.63;5030621;28;20230;-61
2022/07/16 09:29:47;;;;;;;5.53;1.77;;;18.20;99.90;;;-141.84;55.02;20608.56;5010652;28;20618;-62
2022/07/16 09:32:29;;;;;;;3.45;1.52;;;18.30;99.90;;;-141.84;52.60;20765.09;5011394;28;20198;-62
2022/07/16 09:35:09;;;;;;;1.42;1.33;;;18.70;99.90;;;-141.84;51.12;20846.41;5011134;28;20209;-62
2022/07/16 09:37:52;;;;;;;3.45;1.60;;;19.20;99.90;;;-141.84;51.09;20903.34;5010564;28;20321;-61
2022/07/16 09:40:34;;;;;;;1.55;1.45;;;19.50;99.90;;;-141.84;49.69;20919.59;5010844;28;20232;-61
2022/07/16 09:43:05;;;;;;;2.35;1.70;;;19.70;99.90;;;-141.84;49.84;20941.97;5010631;28;20226;-61
2022/07/16 09:45:33;;;;;;;5.72;2.08;;;19.90;99.90;;;-141.84;47.31;21045.63;5010510;28;20714;-61
2022/07/16 09:48:01;;;;;;;1.95;1.70;;;20.10;99.90;;;-141.84;47.25;21025.31;5041884;28;20312;-62
2022/07/16 09:50:37;;;;;;;5.45;2.10;;;20.10;99.90;;;-141.84;46.43;21074.09;5032842;28;20605;-61
2022/07/16 09:53:16;;;;;;;2.42;1.70;;;20.30;99.90;;;-141.84;46.73;21080.19;5030833;28;20182;-61
2022/07/16 09:56:02;;;;;;;7.60;1.80;;;20.40;99.90;;;-141.84;46.88;21053.78;5030267;28;20642;-61
2022/07/16 09:58:31;;;;;;;6.78;2.20;;;20.50;99.90;;;-141.84;46.43;21043.59;5030216;28;20305;-62
2022/07/16 10:01:01;;;;;;;2.90;1.55;;;20.60;99.90;;;-141.84;47.17;21122.91;5030333;28;20776;-61
2022/07/16 10:03:34;;;;;;;4.85;1.35;;;20.70;99.90;;;-141.84;46.16;21131.03;5030173;28;20716;-61
2022/07/16 10:06:02;;;;;;;4.00;1.27;;;20.80;99.90;;;-141.84;46.05;21098.50;5030203;28;20225;-63
2022/07/16 10:08:33;;;;;;;2.15;1.48;;;20.90;99.90;;;-141.84;46.74;21076.13;5029653;28;20210;-60
2022/07/16 10:11:01;;;;;;;2.03;1.05;;;20.60;99.90;;;-141.84;47.21;21092.41;5030539;28;20358;-59
2022/07/16 10:13:30;;;;;;;3.88;1.50;;;20.70;99.90;;;-141.84;47.26;21055.81;5023452;28;20719;-59
2022/07/16 10:15:59;;;;;;;1.27;1.17;;;20.70;99.90;;;-141.84;47.31;21057.84;5031824;28;20222;-61
2022/07/16 10:18:38;;;;;;;2.72;1.30;;;20.70;99.90;;;-141.84;47.68;20986.69;5030017;28;20217;-60